Time;durP1;ratioP1;P1;durP2;ratioP2;P2;SDS_P1;SDS_P2;PMS_P1;PMS_P2;Temp;Humidity;BMP_temperature;BMP_pressure;BME280_temperature;BME280_humidity;BME280_pressure;Samples;Min_cycle;Max_cycle;Signal;HPM_P1;HPM_P2
2022/05/17 00:02:18;;;;;;;0.90;0.70;;;;;;;;;;5049497;28;20899;-67
2022/05/17 00:04:44;;;;;;;1.00;0.93;;;;;;;;;;5048552;28;20417;-67
2022/05/17 00:07:11;;;;;;;1.00;1.00;;;;;;;;;;5049559;28;20211;-67
2022/05/17 00:09:37;;;;;;;1.00;1.00;;;;;;;;;;5049872;28;20191;-67
2022/05/17 00:12:04;;;;;;;0.90;0.90;;;;;;;;;;5049999;28;20468;-67
2022/05/17 00:14:30;;;;;;;1.00;1.00;;;24.30;71.60;;;;;;5050249;28;20948;-67
2022/05/17 00:16:57;;;;;;;1.00;1.00;;;;;;;;;;5053309;28;20422;-67
2022/05/17 00:19:23;;;;;;;1.00;0.90;;;;;;;;;;5053680;28;20215;-67
2022/05/17 00:21:49;;;;;;;2.30;1.33;;;;;;;;;;5053397;28;20492;-68
2022/05/17 00:24:16;;;;;;;1.17;1.07;;;;;;;;;;5053813;28;20493;-68
2022/05/17 00:26:42;;;;;;;1.40;1.30;;;;;;;;;;5053554;28;20448;-67
2022/05/17 00:29:08;;;;;;;1.37;0.87;;;24.30;69.20;;;;;;5053429;28;20399;-66
2022/05/17 00:31:34;;;;;;;1.40;0.93;;;;;;;;;;5053582;28;20426;-66
2022/05/17 00:34:02;;;;;;;1.47;1.30;;;;;;;;;;5053283;28;20506;-67
2022/05/17 00:36:28;;;;;;;1.00;0.90;;;;;;;;;;5053287;28;20474;-67
2022/05/17 00:38:54;;;;;;;1.20;1.10;;;;;;;;;;5053168;28;21173;-67
2022/05/17 00:41:20;;;;;;;1.13;1.02;;;;;;;;;;5053055;28;20484;-66
2022/05/17 00:46:48;;;;;;;1.10;0.77;;;24.20;57.30;;;;;;5053258;28;20178;-67
2022/05/17 00:49:19;;;;;;;1.30;1.27;;;24.20;63.60;;;;;;5053439;28;20403;-67
2022/05/17 00:51:46;;;;;;;0.87;0.87;;;;;;;;;;5053368;28;20429;-67
2022/05/17 00:54:16;;;;;;;0.93;0.83;;;24.20;65.30;;;;;;5053324;28;20417;-67
2022/05/17 00:57:06;;;;;;;3.73;1.33;;;24.20;75.50;;;;;;5053108;28;21125;-67
2022/05/17 00:59:33;;;;;;;1.27;1.00;;;24.20;66.70;;;;;;5053304;28;20445;-66
2022/05/17 01:02:00;;;;;;;1.30;1.20;;;;;;;;;;5052707;28;20214;-67
2022/05/17 01:04:26;;;;;;;1.10;1.10;;;;;;;;;;5052990;28;20450;-67
2022/05/17 01:06:57;;;;;;;0.90;0.90;;;24.30;67.80;;;;;;5052327;28;20495;-67
2022/05/17 01:09:24;;;;;;;1.37;1.27;;;;;;;;;;5052713;28;20215;-66
2022/05/17 01:11:50;;;;;;;1.63;1.23;;;;;;;;;;5052854;28;20411;-67
2022/05/17 01:17:01;;;;;;;2.20;1.27;;;;;;;;;;5051028;28;20813;-67
2022/05/17 01:19:27;;;;;;;1.50;1.40;;;;;;;;;;5052388;28;20470;-67
2022/05/17 01:21:53;;;;;;;4.63;1.00;;;;;;;;;;5052490;28;20470;-67
2022/05/17 01:24:19;;;;;;;1.10;1.10;;;;;;;;;;5052733;28;20789;-67
2022/05/17 01:26:51;;;;;;;3.07;1.20;;;24.20;65.30;;;;;;5051086;28;20419;-67
2022/05/17 01:29:17;;;;;;;1.23;1.13;;;;;;;;;;5052500;28;20410;-67
2022/05/17 01:31:43;;;;;;;1.10;1.10;;;;;;;;;;5052426;28;20406;-67
2022/05/17 01:34:13;;;;;;;1.50;1.40;;;24.10;64.70;;;;;;5052500;28;20478;-67
2022/05/17 01:36:39;;;;;;;1.40;1.30;;;;;;;;;;5052083;28;20517;-67
2022/05/17 01:39:05;;;;;;;2.00;1.60;;;;;;;;;;5051984;28;20426;-67
2022/05/17 01:41:31;;;;;;;1.67;1.07;;;24.10;61.80;;;;;;5052312;28;20458;-67
2022/05/17 01:43:59;;;;;;;0.90;0.90;;;;;;;;;;5052066;28;20415;-67
2022/05/17 01:46:24;;;;;;;0.73;0.73;;;;;;;;;;5051825;28;20899;-66
2022/05/17 01:48:51;;;;;;;1.00;1.00;;;;;;;;;;5051695;28;20445;-67
2022/05/17 01:51:19;;;;;;;1.10;1.00;;;24.10;64.30;;;;;;5052181;28;20934;-67
2022/05/17 01:53:45;;;;;;;2.43;1.10;;;;;;;;;;5051815;28;20418;-67
2022/05/17 01:56:11;;;;;;;1.40;1.30;;;;;;;;;;5051943;28;20425;-67
2022/05/17 01:58:38;;;;;;;1.20;1.20;;;;;;;;;;5051978;28;20410;-67
2022/05/17 02:01:07;;;;;;;2.80;1.77;;;24.10;65.40;;;;;;5051197;28;20460;-68
2022/05/17 02:03:34;;;;;;;1.07;1.07;;;;;;;;;;5051913;28;20787;-67
2022/05/17 02:06:00;;;;;;;1.43;1.00;;;;;;;;;;5051958;28;20398;-67
2022/05/17 02:08:26;;;;;;;1.90;1.30;;;;;;;;;;5051974;28;20399;-67
2022/05/17 02:10:52;;;;;;;2.33;2.20;;;;;;;;;;5051833;28;20438;-67
2022/05/17 02:13:18;;;;;;;1.85;1.40;;;;;;;;;;5051838;28;20509;-68
2022/05/17 02:15:45;;;;;;;3.43;2.10;;;;;;;;;;5051052;28;20175;-67
2022/05/17 02:18:11;;;;;;;1.88;1.70;;;;;;;;;;5051664;28;20475;-68
2022/05/17 02:20:37;;;;;;;0.97;0.97;;;;;;;;;;5051682;28;20199;-66
2022/05/17 02:23:03;;;;;;;0.90;0.90;;;;;;;;;;5051638;28;20485;-67
2022/05/17 02:25:29;;;;;;;1.67;0.80;;;;;;;;;;5051734;28;20175;-66
2022/05/17 02:27:55;;;;;;;4.80;1.30;;;;;;;;;;5051891;28;20407;-67
2022/05/17 02:30:21;;;;;;;0.87;0.87;;;;;;;;;;5051273;28;20195;-68
2022/05/17 02:32:47;;;;;;;2.45;1.30;;;;;;;;;;5051342;28;20902;-67
2022/05/17 02:35:14;;;;;;;2.03;1.30;;;;;;;;;;5051422;28;20172;-67
2022/05/17 02:37:40;;;;;;;1.37;1.20;;;;;;;;;;5050589;28;20491;-67
2022/05/17 02:40:07;;;;;;;1.40;1.00;;;;;;;;;;5051179;28;20978;-67
2022/05/17 02:42:32;;;;;;;1.45;0.70;;;;;;;;;;5051029;28;20816;-67
2022/05/17 02:44:58;;;;;;;1.00;1.00;;;;;;;;;;5051286;28;20168;-67
2022/05/17 02:47:24;;;;;;;1.33;1.03;;;;;;;;;;5050659;28;20657;-67
2022/05/17 02:49:50;;;;;;;0.97;0.97;;;;;;;;;;5050907;28;20445;-67
2022/05/17 02:52:16;;;;;;;1.10;0.98;;;;;;;;;;5050707;28;20872;-66
2022/05/17 02:54:42;;;;;;;2.13;1.17;;;;;;;;;;5050929;28;20590;-66
2022/05/17 02:57:08;;;;;;;4.33;1.30;;;;;;;;;;5050485;28;21178;-67
2022/05/17 02:59:34;;;;;;;1.10;1.10;;;;;;;;;;5050699;28;20794;-67
2022/05/17 03:02:00;;;;;;;0.90;0.80;;;;;;;;;;5050723;28;20469;-67
2022/05/17 03:04:27;;;;;;;2.83;1.20;;;;;;;;;;5050719;28;20415;-67
2022/05/17 03:06:53;;;;;;;1.20;1.20;;;;;;;;;;5050576;28;20464;-66
2022/05/17 03:09:19;;;;;;;1.90;1.50;;;;;;;;;;5050420;28;20207;-67
2022/05/17 03:11:45;;;;;;;1.70;1.50;;;;;;;;;;5050638;28;20406;-67
2022/05/17 03:14:13;;;;;;;4.80;0.90;;;24.10;65.10;;;;;;5050581;28;20414;-67
2022/05/17 03:16:39;;;;;;;2.30;1.80;;;;;;;;;;5047750;28;20183;-67
2022/05/17 03:19:05;;;;;;;1.40;1.30;;;;;;;;;;5047098;28;20439;-67
2022/05/17 03:21:31;;;;;;;2.30;1.20;;;;;;;;;;5047932;28;20970;-67
2022/05/17 03:23:57;;;;;;;0.93;0.93;;;;;;;;;;5050371;28;20488;-66
2022/05/17 03:26:23;;;;;;;1.43;0.87;;;;;;;;;;5050145;28;20410;-68
2022/05/17 03:28:49;;;;;;;0.97;0.97;;;;;;;;;;5050419;28;20428;-67
2022/05/17 03:31:15;;;;;;;0.80;0.80;;;;;;;;;;5050079;28;20282;-67
2022/05/17 03:33:41;;;;;;;1.20;1.10;;;;;;;;;;5050265;28;20495;-67
2022/05/17 03:36:08;;;;;;;0.80;0.80;;;;;;;;;;5050215;28;20410;-66
2022/05/17 03:38:34;;;;;;;1.17;1.08;;;;;;;;;;5050117;28;20943;-67
2022/05/17 03:41:00;;;;;;;0.93;0.90;;;;;;;;;;5050109;28;20616;-67
2022/05/17 03:43:27;;;;;;;1.13;1.13;;;24.00;62.60;;;;;;5050345;28;20430;-67
2022/05/17 03:45:54;;;;;;;1.03;0.93;;;;;;;;;;5049852;28;20430;-67
2022/05/17 03:48:20;;;;;;;1.00;0.80;;;;;;;;;;5050249;28;20438;-67
2022/05/17 03:50:46;;;;;;;0.90;0.90;;;;;;;;;;5055516;28;20860;-67
2022/05/17 03:53:12;;;;;;;1.47;1.37;;;;;;;;;;5056542;28;20495;-67
2022/05/17 03:55:39;;;;;;;1.50;1.40;;;;;;;;;;5056809;28;20815;-67
2022/05/17 03:58:05;;;;;;;3.27;1.13;;;;;;;;;;5056331;28;20843;-67
2022/05/17 04:00:31;;;;;;;1.27;1.17;;;;;;;;;;5056650;28;20439;-67
2022/05/17 04:02:57;;;;;;;1.20;1.10;;;;;;;;;;5056213;28;20458;-67
2022/05/17 04:05:23;;;;;;;1.00;1.00;;;;;;;;;;5056648;28;20489;-66
2022/05/17 04:07:49;;;;;;;1.17;1.17;;;;;;;;;;5056518;28;20501;-67
2022/05/17 04:10:16;;;;;;;2.85;1.23;;;23.90;64.10;;;;;;5056286;28;20433;-67
2022/05/17 04:12:42;;;;;;;1.00;1.00;;;;;;;;;;5056447;28;20194;-67
2022/05/17 04:15:12;;;;;;;1.07;1.07;;;23.90;64.30;;;;;;5056539;28;20764;-67
2022/05/17 04:17:38;;;;;;;1.13;1.13;;;;;;;;;;5055501;28;20418;-67
2022/05/17 04:20:04;;;;;;;1.23;1.13;;;;;;;;;;5056034;28;20529;-67
2022/05/17 04:22:30;;;;;;;1.90;1.00;;;;;;;;;;5055712;28;20599;-67
2022/05/17 04:24:57;;;;;;;0.73;0.73;;;;;;;;;;5055752;28;20448;-67
2022/05/17 04:27:23;;;;;;;1.17;1.15;;;;;;;;;;5055507;28;20180;-67
2022/05/17 04:29:49;;;;;;;1.23;1.13;;;;;;;;;;5055828;28;20207;-67
2022/05/17 04:32:16;;;;;;;0.90;0.90;;;;;;;;;;5055746;28;20729;-67
2022/05/17 04:34:42;;;;;;;1.20;1.10;;;;;;;;;;5055809;28;20496;-67
2022/05/17 04:37:08;;;;;;;1.10;1.00;;;;;;;;;;5054652;28;20944;-67
2022/05/17 04:39:34;;;;;;;2.73;1.20;;;;;;;;;;5055628;28;21084;-67
2022/05/17 04:42:00;;;;;;;1.10;1.00;;;;;;;;;;5055757;28;20452;-66
2022/05/17 04:44:26;;;;;;;1.50;1.10;;;;;;;;;;5055863;28;20410;-67
2022/05/17 04:46:52;;;;;;;1.50;1.40;;;;;;;;;;5055354;28;20441;-68
2022/05/17 04:49:19;;;;;;;1.30;1.30;;;;;;;;;;5055359;28;20918;-67
2022/05/17 04:51:45;;;;;;;0.93;0.93;;;;;;;;;;5055621;28;20425;-67
2022/05/17 04:54:11;;;;;;;1.20;1.10;;;;;;;;;;5055916;28;20457;-67
2022/05/17 04:56:37;;;;;;;1.33;1.33;;;;;;;;;;5055952;28;20758;-67
2022/05/17 04:59:03;;;;;;;1.13;1.07;;;;;;;;;;5055854;28;20847;-67
2022/05/17 05:01:31;;;;;;;1.73;1.20;;;;;;;;;;5054102;28;20486;-67
2022/05/17 05:03:57;;;;;;;1.33;1.23;;;;;;;;;;5052915;28;20407;-67
2022/05/17 05:06:23;;;;;;;0.90;0.90;;;;;;;;;;5051617;28;20415;-68
2022/05/17 05:08:49;;;;;;;1.40;1.07;;;;;;;;;;5052887;28;20262;-68
2022/05/17 05:11:15;;;;;;;1.92;1.40;;;;;;;;;;5049619;28;20449;-67
2022/05/17 05:13:41;;;;;;;0.90;0.90;;;;;;;;;;5052132;28;20179;-67
2022/05/17 05:16:11;;;;;;;1.73;1.17;;;23.90;59.00;;;;;;5052548;28;20521;-67
2022/05/17 05:18:37;;;;;;;1.67;1.57;;;;;;;;;;5051172;28;20499;-68
2022/05/17 05:21:09;;;;;;;1.37;1.37;;;23.90;65.20;;;;;;5050643;28;20521;-68
2022/05/17 05:23:35;;;;;;;2.30;1.50;;;;;;;;;;5051699;28;20913;-68
2022/05/17 05:26:02;;;;;;;3.70;2.17;;;;;;;;;;5052992;28;20407;-68
2022/05/17 05:28:28;;;;;;;2.03;1.60;;;;;;;;;;5052808;28;20419;-68
2022/05/17 05:30:55;;;;;;;1.42;1.33;;;23.80;65.10;;;;;;5052764;28;20775;-68
2022/05/17 05:33:22;;;;;;;1.50;1.40;;;;;;;;;;5052775;28;20177;-68
2022/05/17 05:35:48;;;;;;;2.80;1.60;;;;;;;;;;5052585;28;20422;-68
2022/05/17 05:38:14;;;;;;;2.27;1.60;;;;;;;;;;5052873;28;20414;-68
2022/05/17 05:40:41;;;;;;;2.20;2.10;;;;;;;;;;5051830;28;20504;-68
2022/05/17 05:43:07;;;;;;;1.55;1.45;;;;;;;;;;5052016;28;20492;-68
2022/05/17 05:45:33;;;;;;;2.30;1.50;;;;;;;;;;5052153;28;20172;-68
2022/05/17 05:47:59;;;;;;;3.67;1.97;;;;;;;;;;5051557;28;20402;-68
2022/05/17 05:50:25;;;;;;;4.80;1.97;;;;;;;;;;5051477;28;20422;-68
2022/05/17 05:52:51;;;;;;;1.70;1.42;;;;;;;;;;5051545;28;21052;-68
2022/05/17 05:55:20;;;;;;;2.70;1.73;;;23.50;66.40;;;;;;5051577;28;20632;-66
2022/05/17 05:57:46;;;;;;;2.40;1.40;;;;;;;;;;5044429;28;20468;-67
2022/05/17 06:00:12;;;;;;;2.37;1.93;;;;;;;;;;5050798;28;20443;-67
2022/05/17 06:02:39;;;;;;;1.10;1.10;;;23.40;64.30;;;;;;5050099;28;20615;-66
2022/05/17 06:05:05;;;;;;;1.77;1.47;;;;;;;;;;5050299;28;20418;-67
2022/05/17 06:07:31;;;;;;;5.80;1.57;;;;;;;;;;5049766;28;20781;-66
2022/05/17 06:09:57;;;;;;;12.47;1.63;;;;;;;;;;5031548;28;20442;-66
2022/05/17 06:12:23;;;;;;;1.53;1.37;;;;;;;;;;5049758;28;20895;-66
2022/05/17 06:14:49;;;;;;;1.90;1.80;;;;;;;;;;5050154;28;20417;-66
2022/05/17 06:17:15;;;;;;;1.47;0.80;;;;;;;;;;5049653;28;20182;-66
2022/05/17 06:19:41;;;;;;;1.37;1.27;;;;;;;;;;5050164;28;20547;-66
2022/05/17 06:22:07;;;;;;;3.90;1.37;;;;;;;;;;5050310;28;20875;-70
2022/05/17 06:24:33;;;;;;;1.43;1.27;;;;;;;;;;5050415;28;20410;-68
2022/05/17 06:27:00;;;;;;;2.00;1.20;;;;;;;;;;5049730;28;20187;-68
2022/05/17 06:29:26;;;;;;;3.70;0.80;;;;;;;;;;5049709;28;20520;-68
2022/05/17 06:31:52;;;;;;;2.23;1.30;;;;;;;;;;5050059;28;20419;-68
2022/05/17 06:34:18;;;;;;;1.23;1.13;;;;;;;;;;5049910;28;20422;-68
2022/05/17 06:36:44;;;;;;;1.27;1.27;;;;;;;;;;5049734;28;20514;-68
2022/05/17 06:39:11;;;;;;;1.23;1.23;;;;;;;;;;5049397;28;20484;-68
2022/05/17 06:41:37;;;;;;;5.33;1.53;;;;;;;;;;5049712;28;20539;-68
2022/05/17 06:44:03;;;;;;;1.10;1.10;;;;;;;;;;5049880;28;20801;-68
2022/05/17 06:46:30;;;;;;;2.37;1.90;;;;;;;;;;5048954;28;20429;-68
2022/05/17 06:48:55;;;;;;;1.07;0.97;;;;;;;;;;5049808;28;20419;-68
2022/05/17 06:51:21;;;;;;;1.60;1.17;;;;;;;;;;5049903;28;20503;-68
2022/05/17 06:53:48;;;;;;;1.30;1.20;;;;;;;;;;5049467;28;20456;-68
2022/05/17 06:56:14;;;;;;;1.00;1.00;;;;;;;;;;5049378;28;20558;-68
2022/05/17 06:58:40;;;;;;;1.20;1.20;;;;;;;;;;5049445;28;20430;-68
2022/05/17 07:01:06;;;;;;;1.20;1.20;;;;;;;;;;5048494;28;20517;-68
2022/05/17 07:03:32;;;;;;;0.80;0.80;;;;;;;;;;5049343;28;20418;-68
2022/05/17 07:05:58;;;;;;;1.17;1.10;;;;;;;;;;5048942;28;20687;-68
2022/05/17 07:08:24;;;;;;;2.03;1.87;;;;;;;;;;5048762;28;20423;-68
2022/05/17 07:13:34;;;;;;;1.50;1.38;;;;;;;;;;5048291;28;20491;-68
2022/05/17 07:16:01;;;;;;;2.30;2.10;;;;;;;;;;5048728;28;20251;-68
2022/05/17 07:18:29;;;;;;;1.37;1.27;;;;;;;;;;5048831;28;20909;-68
2022/05/17 07:20:55;;;;;;;1.20;1.10;;;24.00;65.30;;;;;;5049243;28;20453;-68
2022/05/17 07:23:24;;;;;;;1.57;0.93;;;;;;;;;;5048965;28;20462;-68
2022/05/17 07:25:50;;;;;;;1.93;1.80;;;;;;;;;;5047341;28;20480;-67
2022/05/17 07:28:18;;;;;;;0.87;0.87;;;24.00;66.50;;;;;;5048856;28;20418;-67
2022/05/17 07:30:47;;;;;;;1.33;1.23;;;23.90;65.60;;;;;;5045849;28;20453;-67
2022/05/17 07:33:13;;;;;;;0.80;0.80;;;;;;;;;;5046940;28;20434;-67
2022/05/17 07:35:39;;;;;;;1.10;1.00;;;;;;;;;;5047500;28;20432;-67
2022/05/17 07:38:06;;;;;;;1.33;1.00;;;;;;;;;;5049030;28;20446;-67
2022/05/17 07:40:32;;;;;;;2.20;1.00;;;;;;;;;;5047432;28;20253;-68
2022/05/17 07:42:59;;;;;;;1.98;1.42;;;;;;;;;;5052319;28;20565;-71
2022/05/17 07:45:25;;;;;;;3.50;1.50;;;;;;;;;;5048640;28;20184;-70
2022/05/17 07:47:51;;;;;;;1.77;1.27;;;;;;;;;;5048613;28;20418;-70
2022/05/17 07:50:17;;;;;;;1.70;1.60;;;;;;;;;;5048636;28;20814;-70
2022/05/17 07:52:43;;;;;;;3.80;1.77;;;;;;;;;;5049310;28;20890;-70
2022/05/17 07:55:10;;;;;;;1.50;1.40;;;24.10;64.10;;;;;;5049124;28;20928;-70
2022/05/17 07:57:37;;;;;;;2.30;1.80;;;;;;;;;;5047605;28;20414;-68
2022/05/17 08:00:05;;;;;;;3.57;1.30;;;24.10;66.50;;;;;;5048879;28;20429;-68
2022/05/17 08:02:31;;;;;;;2.20;1.60;;;;;;;;;;5048648;28;20470;-69
2022/05/17 08:04:57;;;;;;;5.25;1.27;;;;;;;;;;5048029;28;20911;-68
2022/05/17 08:07:23;;;;;;;3.27;2.27;;;;;;;;;;5047548;28;20476;-67
2022/05/17 08:09:49;;;;;;;2.80;1.73;;;;;;;;;;5048221;28;20272;-67
2022/05/17 08:12:15;;;;;;;2.70;1.80;;;;;;;;;;5048236;28;20499;-70
2022/05/17 08:14:42;;;;;;;2.67;1.27;;;;;;;;;;5048644;28;20703;-70
2022/05/17 08:17:08;;;;;;;3.53;1.93;;;24.30;66.90;;;;;;5048852;28;20498;-70
2022/05/17 08:19:38;;;;;;;2.03;1.83;;;24.30;61.80;;;;;;5048764;28;20541;-71
2022/05/17 08:22:05;;;;;;;1.80;1.50;;;24.20;68.40;;;;;;5048596;28;20461;-71
2022/05/17 08:27:31;;;;;;;3.67;1.50;;;;;;;;;;5047433;28;20931;-71
2022/05/17 08:27:31;;;;;;;1.30;1.17;;;24.30;68.00;;;;;;5048617;28;20509;-71
2022/05/17 08:30:01;;;;;;;2.47;2.07;;;24.30;65.80;;;;;;5028830;28;20485;-71
2022/05/17 08:35:12;;;;;;;3.60;2.33;;;;;;;;;;5048955;28;20422;-70
2022/05/17 08:37:38;;;;;;;2.97;1.33;;;;;;;;;;5052403;28;20211;-68
2022/05/17 08:40:04;;;;;;;4.37;1.53;;;;;;;;;;5051999;28;20313;-68
2022/05/17 08:43:02;;;;;;;2.20;1.30;;;24.40;61.00;;;;;;5052080;28;20983;-68
2022/05/17 08:45:54;;;;;;;2.07;1.50;;;24.40;75.60;;;;;;5028289;28;20439;-65
2022/05/17 08:48:20;;;;;;;2.72;1.90;;;;;;;;;;5032485;28;20883;-69
2022/05/17 08:50:49;;;;;;;3.37;1.40;;;;;;;;;;5032261;28;20575;-70
2022/05/17 08:53:17;;;;;;;3.87;1.60;;;;;;;;;;5032301;28;20403;-69
2022/05/17 08:55:43;;;;;;;1.42;1.33;;;;;;;;;;5032010;28;20408;-71
2022/05/17 08:58:23;;;;;;;6.50;1.80;;;24.50;60.50;;;;;;5032379;28;20478;-70
2022/05/17 09:00:57;;;;;;;1.13;1.03;;;24.50;66.80;;;;;;5048885;28;20562;-69
2022/05/17 09:03:57;;;;;;;4.37;2.20;;;24.40;60.40;;;;;;5051152;28;20548;-69
2022/05/17 09:06:38;;;;;;;1.93;1.83;;;24.40;60.90;;;;;;5052065;28;20409;-68
2022/05/17 09:09:09;;;;;;;3.70;1.30;;;;;;;;;;5051913;28;20411;-71
2022/05/17 09:11:43;;;;;;;1.02;1.02;;;;;;;;;;5051589;28;20458;-70
2022/05/17 09:14:09;;;;;;;2.15;1.60;;;;;;;;;;5051665;28;20666;-69
2022/05/17 09:16:42;;;;;;;2.20;1.67;;;25.10;59.70;;;;;;5051286;28;20324;-66
2022/05/17 09:19:08;;;;;;;5.43;1.70;;;;;;;;;;5051670;28;20645;-67
2022/05/17 09:21:41;;;;;;;2.97;1.33;;;24.00;65.30;;;;;;5051693;28;20458;-68
2022/05/17 09:24:12;;;;;;;1.63;1.53;;;24.30;65.80;;;;;;5051666;28;20475;-68
2022/05/17 09:26:39;;;;;;;1.50;1.30;;;23.80;64.10;;;;;;5051494;28;20506;-69
2022/05/17 09:29:20;;;;;;;2.20;1.60;;;24.50;66.40;;;;;;5051356;28;20413;-70
2022/05/17 09:31:53;;;;;;;3.40;2.00;;;24.50;59.70;;;;;;5051554;28;20418;-69
2022/05/17 09:34:38;;;;;;;3.47;1.20;;;24.50;59.70;;;;;;5051373;28;20414;-68
2022/05/17 09:37:08;;;;;;;1.57;1.23;;;;;;;;;;5050431;28;20976;-69
2022/05/17 09:39:34;;;;;;;1.58;1.52;;;;;;;;;;5050723;28;20961;-69
2022/05/17 09:42:06;;;;;;;2.28;1.40;;;24.60;59.20;;;;;;5051463;28;20212;-69
2022/05/17 09:44:33;;;;;;;2.20;1.73;;;;;;;;;;5051168;28;20481;-71
2022/05/17 09:47:02;;;;;;;3.20;1.67;;;24.80;66.10;;;;;;5050013;28;20520;-72
2022/05/17 09:52:42;;;;;;;1.40;1.30;;;24.40;65.80;;;;;;5051665;28;20418;-68
2022/05/17 09:55:09;;;;;;;2.00;1.10;;;;;;;;;;5051019;28;20668;-67
2022/05/17 09:57:36;;;;;;;1.80;1.70;;;;;;;;;;5050787;28;20422;-68
2022/05/17 10:00:02;;;;;;;31.17;2.10;;;;;;;;;;5050440;28;20470;-69
2022/05/17 10:02:34;;;;;;;1.60;1.50;;;;;;;;;;5050260;28;20488;-65
2022/05/17 10:05:25;;;;;;;2.60;1.70;;;24.60;60.10;;;;;;5050681;28;20406;-64
2022/05/17 10:08:03;;;;;;;1.43;1.33;;;23.70;59.10;;;;;;5050467;28;20419;-69
2022/05/17 10:10:35;;;;;;;1.40;1.30;;;24.60;59.80;;;;;;5050484;28;20422;-68
2022/05/17 10:13:15;;;;;;;1.73;1.40;;;24.60;66.20;;;;;;5050229;28;20441;-68
2022/05/17 10:15:43;;;;;;;4.03;1.47;;;24.60;66.00;;;;;;5030325;28;20779;-67
2022/05/17 10:18:21;;;;;;;1.43;1.33;;;;;;;;;;5030634;28;20821;-66
2022/05/17 10:20:54;;;;;;;1.47;1.37;;;24.90;66.00;;;;;;5039944;28;20858;-67
2022/05/17 10:23:38;;;;;;;1.50;1.40;;;24.70;59.90;;;;;;5045454;28;20544;-68
2022/05/17 10:26:13;;;;;;;1.60;1.50;;;24.60;59.80;;;;;;5050267;28;20418;-72
2022/05/17 10:28:45;;;;;;;1.20;1.10;;;24.70;66.50;;;;;;5049604;28;20555;-70
2022/05/17 10:31:40;;;;;;;2.30;1.50;;;24.70;60.10;;;;;;5049738;28;20954;-68
2022/05/17 10:34:22;;;;;;;3.37;1.57;;;24.60;60.30;;;;;;5049511;28;20418;-68
2022/05/17 10:36:54;;;;;;;4.10;1.20;;;24.50;66.30;;;;;;5048152;28;20426;-66
2022/05/17 10:39:22;;;;;;;1.87;1.60;;;24.70;59.60;;;;;;5047907;28;20462;-66
2022/05/17 10:41:49;;;;;;;1.00;0.90;;;24.60;65.90;;;;;;5047612;28;20455;-66
2022/05/17 10:44:17;;;;;;;1.17;1.17;;;24.60;65.60;;;;;;5049725;28;20887;-66
2022/05/17 10:46:48;;;;;;;1.40;1.30;;;24.60;66.00;;;;;;5049541;28;20433;-66
2022/05/17 10:49:26;;;;;;;1.53;1.30;;;24.60;59.80;;;;;;5049522;28;20426;-66
2022/05/17 10:52:18;;;;;;;1.63;1.53;;;24.50;65.70;;;;;;5050034;28;20528;-66
2022/05/17 10:55:20;;;;;;;1.30;1.20;;;25.20;59.90;;;;;;5049533;28;20456;-66
2022/05/17 10:57:51;;;;;;;3.87;1.73;;;;;;;;;;5048914;28;20751;-66
2022/05/17 11:00:25;;;;;;;1.40;1.40;;;;;;;;;;5049374;28;20434;-66
2022/05/17 11:03:12;;;;;;;2.35;1.40;;;24.70;58.50;;;;;;5049400;28;20204;-67
2022/05/17 11:06:19;;;;;;;1.50;1.37;;;24.50;59.10;;;;;;5049473;28;20751;-66
2022/05/17 11:08:56;;;;;;;1.30;1.07;;;24.60;58.90;;;;;;5049128;28;20403;-66
2022/05/17 11:11:28;;;;;;;1.40;1.30;;;;;;;;;;5048885;28;20502;-66
2022/05/17 11:14:08;;;;;;;1.30;1.15;;;25.90;66.20;;;;;;5049282;28;20407;-66
2022/05/17 11:16:44;;;;;;;1.67;1.00;;;25.30;65.70;;;;;;5049159;28;20261;-66
2022/05/17 11:19:34;;;;;;;1.40;1.30;;;24.70;59.30;;;;;;5048628;28;20509;-66
2022/05/17 11:22:21;;;;;;;2.10;1.37;;;24.60;59.20;;;;;;5049608;28;20543;-68
2022/05/17 11:25:11;;;;;;;1.33;1.30;;;24.60;58.90;;;;;;5049064;28;20418;-68
2022/05/17 11:28:09;;;;;;;3.03;1.20;;;24.70;59.00;;;;;;5048908;28;20403;-68
2022/05/17 11:30:56;;;;;;;1.33;1.33;;;24.60;59.60;;;;;;5049079;28;20410;-67
2022/05/17 11:33:22;;;;;;;1.00;1.00;;;;;;;;;;5048948;28;20428;-67
2022/05/17 11:35:48;;;;;;;1.10;0.90;;;;;;;;;;5048466;28;20497;-67
2022/05/17 11:38:18;;;;;;;1.03;1.03;;;;;;;;;;5042764;28;20197;-67
2022/05/17 11:40:47;;;;;;;1.90;1.20;;;24.70;58.80;;;;;;5048448;28;20253;-67
2022/05/17 11:45:58;;;;;;;1.40;1.30;;;;;;;;;;5048634;28;20426;-67
2022/05/17 11:48:43;;;;;;;1.27;0.90;;;24.70;65.70;;;;;;5048655;28;20422;-67
2022/05/17 11:51:09;;;;;;;1.53;1.37;;;;;;;;;;5048834;28;20509;-67
2022/05/17 11:53:42;;;;;;;1.23;1.07;;;;;;;;;;5048110;28;20533;-65
2022/05/17 11:56:28;;;;;;;3.35;1.10;;;24.80;58.90;;;;;;5048667;28;20915;-69
2022/05/17 11:58:59;;;;;;;2.20;1.10;;;24.70;59.90;;;;;;5047938;28;20168;-68
2022/05/17 12:01:31;;;;;;;1.50;1.40;;;24.70;59.70;;;;;;5048987;28;20512;-67
2022/05/17 12:03:57;;;;;;;1.10;1.10;;;;;;;;;;5049008;28;20415;-66
2022/05/17 12:06:39;;;;;;;1.10;1.10;;;24.00;58.80;;;;;;5048277;28;20418;-66
2022/05/17 12:09:10;;;;;;;3.70;0.97;;;25.00;65.90;;;;;;5048697;28;20408;-66
2022/05/17 12:11:42;;;;;;;0.90;0.90;;;;;;;;;;5050945;28;20418;-66
2022/05/17 12:14:35;;;;;;;5.65;1.27;;;24.80;58.90;;;;;;5052999;28;20456;-66
2022/05/17 12:17:03;;;;;;;3.53;1.33;;;;;;;;;;5051436;28;20199;-66
2022/05/17 12:19:30;;;;;;;1.13;1.02;;;;;;;;;;5052453;28;20485;-66
2022/05/17 12:22:12;;;;;;;1.40;1.40;;;24.10;58.50;;;;;;5051692;28;20191;-66
2022/05/17 12:24:55;;;;;;;1.40;1.30;;;24.70;59.00;;;;;;5052443;28;20414;-66
2022/05/17 12:27:21;;;;;;;1.10;1.10;;;;;;;;;;5052469;28;20918;-66
2022/05/17 12:32:45;;;;;;;1.00;1.00;;;;;;;;;;5052387;28;20472;-68
2022/05/17 12:35:11;;;;;;;1.67;1.57;;;;;;;;;;5052480;28;20406;-66
2022/05/17 12:37:42;;;;;;;0.90;0.90;;;24.70;58.70;;;;;;5049077;28;20826;-67
2022/05/17 12:43:03;;;;;;;0.87;0.87;;;;;;;;;;5045538;28;20545;-67
2022/05/17 12:45:43;;;;;;;1.10;1.10;;;24.80;65.10;;;;;;5051894;28;20756;-67
2022/05/17 12:48:14;;;;;;;0.80;0.80;;;;;;;;;;5052517;28;20514;-67
2022/05/17 12:50:52;;;;;;;0.77;0.77;;;24.80;58.80;;;;;;5052438;28;20487;-67
2022/05/17 12:53:18;;;;;;;0.83;0.83;;;;;;;;;;5052322;28;20515;-67
2022/05/17 12:56:02;;;;;;;3.33;1.20;;;24.80;58.70;;;;;;5051166;28;20446;-69
2022/05/17 12:58:28;;;;;;;3.53;1.30;;;;;;;;;;5051045;28;20418;-70
2022/05/17 13:00:55;;;;;;;1.20;1.20;;;24.80;62.50;;;;;;5052047;28;20483;-68
2022/05/17 13:03:24;;;;;;;1.37;0.90;;;25.40;65.80;;;;;;5051921;28;20461;-68
2022/05/17 13:05:53;;;;;;;1.40;1.40;;;24.70;65.20;;;;;;5052344;28;20434;-68
2022/05/17 13:08:36;;;;;;;0.97;0.97;;;24.70;65.30;;;;;;5051728;28;20414;-68
2022/05/17 13:11:08;;;;;;;0.73;0.73;;;25.40;59.10;;;;;;5051900;28;20450;-68
2022/05/17 13:13:35;;;;;;;2.30;1.33;;;;;;;;;;5051562;28;20480;-68
2022/05/17 13:16:04;;;;;;;1.30;1.20;;;;;;;;;;5051414;28;20507;-68
2022/05/17 13:18:45;;;;;;;1.05;1.05;;;25.00;58.50;;;;;;5051429;28;20226;-68
2022/05/17 13:21:18;;;;;;;0.80;0.80;;;;;;;;;;5051942;28;20559;-68
2022/05/17 13:23:46;;;;;;;0.93;0.90;;;24.90;64.00;;;;;;5049879;28;20426;-68
2022/05/17 13:26:13;;;;;;;0.70;0.70;;;;;;;;;;5050861;28;20231;-68
2022/05/17 13:28:39;;;;;;;1.15;0.80;;;;;;;;;;5047638;28;20502;-68
2022/05/17 13:31:14;;;;;;;0.90;0.90;;;24.90;64.20;;;;;;5051467;28;20270;-68
2022/05/17 13:33:55;;;;;;;0.80;0.80;;;24.90;64.40;;;;;;5051697;28;20426;-67
2022/05/17 13:36:33;;;;;;;0.63;0.63;;;;;;;;;;5051052;28;20953;-66
2022/05/17 13:38:59;;;;;;;1.67;1.23;;;;;;;;;;5050342;28;20418;-66
2022/05/17 13:41:40;;;;;;;1.25;1.10;;;25.00;57.80;;;;;;5050896;28;20215;-66
2022/05/17 13:44:07;;;;;;;1.13;1.07;;;25.00;60.20;;;;;;5051161;28;20263;-66
2022/05/17 13:46:33;;;;;;;0.73;0.70;;;;;;;;;;5050519;28;20930;-66
2022/05/17 13:49:28;;;;;;;1.67;1.00;;;25.00;64.10;;;;;;5050796;28;20603;-66
2022/05/17 13:51:57;;;;;;;0.80;0.80;;;;;;;;;;5047475;28;20196;-66
2022/05/17 13:54:52;;;;;;;1.20;1.20;;;25.00;57.50;;;;;;5050508;28;20501;-66
2022/05/17 13:57:31;;;;;;;0.83;0.83;;;24.90;68.10;;;;;;5050587;28;20255;-68
2022/05/17 14:00:17;;;;;;;1.10;1.10;;;25.00;73.60;;;;;;5050412;28;20430;-68
2022/05/17 14:02:46;;;;;;;0.70;0.70;;;25.00;57.30;;;;;;5031170;28;20467;-66
2022/05/17 14:05:30;;;;;;;1.17;0.90;;;25.00;57.60;;;;;;5048352;28;20180;-66
2022/05/17 14:13:53;;;;;;;0.83;0.83;;;;;;;;;;5050595;28;20494;-66
2022/05/17 14:16:23;;;;;;;1.00;1.00;;;25.00;63.80;;;;;;5050337;28;20912;-66
2022/05/17 14:18:50;;;;;;;0.80;0.80;;;25.00;63.70;;;;;;5050456;28;20188;-66
2022/05/17 14:21:16;;;;;;;0.90;0.90;;;;;;;;;;5050114;28;20457;-66
2022/05/17 14:23:43;;;;;;;0.50;0.50;;;;;;;;;;5050362;28;20410;-66
2022/05/17 14:26:11;;;;;;;0.87;0.83;;;;;;;;;;5050291;28;20415;-68
2022/05/17 14:28:37;;;;;;;0.80;0.70;;;;;;;;;;5050112;28;20423;-66
2022/05/17 14:31:03;;;;;;;0.70;0.70;;;;;;;;;;5050255;28;20473;-67
2022/05/17 14:33:29;;;;;;;0.90;0.90;;;;;;;;;;5048906;28;20789;-66
2022/05/17 14:35:58;;;;;;;0.93;0.60;;;;;;;;;;5050519;28;20186;-67
2022/05/17 14:38:25;;;;;;;2.00;0.80;;;;;;;;;;5050267;28;20932;-68
2022/05/17 14:40:51;;;;;;;0.80;0.80;;;;;;;;;;5049602;28;20449;-68
2022/05/17 14:43:17;;;;;;;0.77;0.77;;;25.10;63.20;;;;;;5050020;28;20494;-68
2022/05/17 14:45:49;;;;;;;2.50;0.80;;;25.00;64.50;;;;;;5049712;28;20933;-68